sensor_id;sensor_type;location;lat;lon;timestamp;pressure;altitude;pressure_sealevel;temperature;humidity
25610;BME280;13479;49.044;8.716;2022-10-20T04:00:56;99124.00;;;12.89;84.17
25610;BME280;13479;49.044;8.716;2022-10-20T04:03:21;99119.94;;;12.85;84.48
25610;BME280;13479;49.044;8.716;2022-10-20T04:05:48;99122.56;;;12.95;84.54
25610;BME280;13479;49.044;8.716;2022-10-20T04:08:13;99148.09;;;12.97;83.88
25610;BME280;13479;49.044;8.716;2022-10-20T04:10:38;99137.13;;;13.01;83.51
25610;BME280;13479;49.044;8.716;2022-10-20T04:13:04;99127.06;;;13.04;83.04
25610;BME280;13479;49.044;8.716;2022-10-20T04:15:30;99112.16;;;13.02;83.54
25610;BME280;13479;49.044;8.716;2022-10-20T04:17:55;99102.50;;;13.01;83.51
25610;BME280;13479;49.044;8.716;2022-10-20T04:20:20;99098.47;;;12.96;83.12
25610;BME280;13479;49.044;8.716;2022-10-20T04:22:46;99088.09;;;12.93;83.45
25610;BME280;13479;49.044;8.716;2022-10-20T04:25:11;99079.72;;;12.88;84.18
25610;BME280;13479;49.044;8.716;2022-10-20T04:27:38;99075.19;;;12.89;84.19
25610;BME280;13479;49.044;8.716;2022-10-20T04:30:04;99054.31;;;12.84;84.61
25610;BME280;13479;49.044;8.716;2022-10-20T04:32:29;99050.53;;;12.87;84.32
25610;BME280;13479;49.044;8.716;2022-10-20T04:34:55;99062.88;;;12.88;84.37
25610;BME280;13479;49.044;8.716;2022-10-20T04:37:20;99072.69;;;12.87;83.74
25610;BME280;13479;49.044;8.716;2022-10-20T04:39:45;99079.72;;;12.88;83.60
25610;BME280;13479;49.044;8.716;2022-10-20T04:42:11;99067.38;;;12.87;83.99
25610;BME280;13479;49.044;8.716;2022-10-20T04:44:36;99073.34;;;12.89;84.00
25610;BME280;13479;49.044;8.716;2022-10-20T04:47:01;99069.03;;;12.88;83.98
25610;BME280;13479;49.044;8.716;2022-10-20T04:49:26;99079.84;;;12.87;83.93
25610;BME280;13479;49.044;8.716;2022-10-20T04:51:52;99075.22;;;12.79;83.87
25610;BME280;13479;49.044;8.716;2022-10-20T04:54:17;99054.22;;;12.76;84.01
25610;BME280;13479;49.044;8.716;2022-10-20T04:56:42;99061.22;;;12.77;84.28
25610;BME280;13479;49.044;8.716;2022-10-20T04:59:08;99042.59;;;12.77;84.50
25610;BME280;13479;49.044;8.716;2022-10-20T05:01:33;99028.84;;;12.72;84.58
25610;BME280;13479;49.044;8.716;2022-10-20T05:03:59;99014.13;;;12.67;84.60
25610;BME280;13479;49.044;8.716;2022-10-20T05:06:31;99021.69;;;12.72;84.82
25610;BME280;13479;49.044;8.716;2022-10-20T05:08:59;99040.91;;;12.76;84.96
25610;BME280;13479;49.044;8.716;2022-10-20T05:11:27;99043.56;;;12.76;84.52
25610;BME280;13479;49.044;8.716;2022-10-20T05:13:52;99036.56;;;12.75;85.08
25610;BME280;13479;49.044;8.716;2022-10-20T05:16:18;99017.22;;;12.73;85.34
25610;BME280;13479;49.044;8.716;2022-10-20T05:18:44;99014.25;;;12.76;85.43
25610;BME280;13479;49.044;8.716;2022-10-20T05:21:15;99027.97;;;12.81;84.88
25610;BME280;13479;49.044;8.716;2022-10-20T05:23:42;99023.34;;;12.83;85.35
25610;BME280;13479;49.044;8.716;2022-10-20T05:26:10;99022.34;;;12.84;84.82
25610;BME280;13479;49.044;8.716;2022-10-20T05:28:36;99016.63;;;12.79;85.20
25610;BME280;13479;49.044;8.716;2022-10-20T05:31:03;99004.00;;;12.81;85.13
25610;BME280;13479;49.044;8.716;2022-10-20T05:33:29;98992.81;;;12.77;85.46
25610;BME280;13479;49.044;8.716;2022-10-20T05:35:54;98994.47;;;12.78;85.60
25610;BME280;13479;49.044;8.716;2022-10-20T05:38:19;98986.31;;;12.80;85.29
25610;BME280;13479;49.044;8.716;2022-10-20T05:40:44;98974.00;;;12.79;85.65
25610;BME280;13479;49.044;8.716;2022-10-20T05:43:10;98975.38;;;12.83;85.74
25610;BME280;13479;49.044;8.716;2022-10-20T05:45:35;98978.06;;;12.83;85.38
25610;BME280;13479;49.044;8.716;2022-10-20T05:48:00;98996.66;;;12.93;84.97
25610;BME280;13479;49.044;8.716;2022-10-20T05:50:25;99010.31;;;13.08;84.40
25610;BME280;13479;49.044;8.716;2022-10-20T05:52:51;99010.91;;;13.02;84.95
25610;BME280;13479;49.044;8.716;2022-10-20T05:55:17;99033.63;;;13.06;84.42
25610;BME280;13479;49.044;8.716;2022-10-20T05:57:42;99048.34;;;13.10;83.47
25610;BME280;13479;49.044;8.716;2022-10-20T06:00:08;99022.78;;;13.07;84.17
25610;BME280;13479;49.044;8.716;2022-10-20T06:02:33;99031.09;;;13.04;84.19
25610;BME280;13479;49.044;8.716;2022-10-20T06:04:58;99032.22;;;13.02;83.76
25610;BME280;13479;49.044;8.716;2022-10-20T06:07:24;99026.34;;;12.98;84.54
25610;BME280;13479;49.044;8.716;2022-10-20T06:09:49;99022.25;;;13.04;84.06
25610;BME280;13479;49.044;8.716;2022-10-20T06:12:14;99045.69;;;13.00;84.13
25610;BME280;13479;49.044;8.716;2022-10-20T06:14:40;99034.59;;;13.05;83.81
25610;BME280;13479;49.044;8.716;2022-10-20T06:17:05;99034.75;;;13.03;83.95
25610;BME280;13479;49.044;8.716;2022-10-20T06:19:30;99041.91;;;13.03;84.24
25610;BME280;13479;49.044;8.716;2022-10-20T06:21:55;99053.25;;;13.05;84.22
25610;BME280;13479;49.044;8.716;2022-10-20T06:24:21;99064.16;;;13.11;83.84
25610;BME280;13479;49.044;8.716;2022-10-20T06:26:46;99078.19;;;13.13;83.40
25610;BME280;13479;49.044;8.716;2022-10-20T06:29:13;99064.69;;;13.15;83.28
25610;BME280;13479;49.044;8.716;2022-10-20T06:31:46;99062.44;;;13.20;83.56
25610;BME280;13479;49.044;8.716;2022-10-20T06:34:23;99060.47;;;13.22;83.16
25610;BME280;13479;49.044;8.716;2022-10-20T06:36:49;99052.84;;;13.27;83.08
25610;BME280;13479;49.044;8.716;2022-10-20T06:39:19;99062.06;;;13.43;82.33
25610;BME280;13479;49.044;8.716;2022-10-20T06:41:49;99057.09;;;13.48;82.14
25610;BME280;13479;49.044;8.716;2022-10-20T06:44:16;99063.84;;;13.52;81.50
25610;BME280;13479;49.044;8.716;2022-10-20T06:46:41;99076.66;;;13.67;81.41
25610;BME280;13479;49.044;8.716;2022-10-20T06:49:08;99075.28;;;13.81;80.81
25610;BME280;13479;49.044;8.716;2022-10-20T06:51:35;99059.28;;;13.99;79.87
25610;BME280;13479;49.044;8.716;2022-10-20T06:54:02;99037.53;;;14.12;79.17
25610;BME280;13479;49.044;8.716;2022-10-20T06:56:29;99036.22;;;14.16;78.12
25610;BME280;13479;49.044;8.716;2022-10-20T06:58:56;99016.38;;;14.18;78.44
25610;BME280;13479;49.044;8.716;2022-10-20T07:01:33;99033.53;;;14.34;78.16
25610;BME280;13479;49.044;8.716;2022-10-20T07:04:01;99045.38;;;14.58;76.96
25610;BME280;13479;49.044;8.716;2022-10-20T07:06:29;99051.34;;;14.78;75.54
25610;BME280;13479;49.044;8.716;2022-10-20T07:08:55;99031.19;;;14.92;74.97
25610;BME280;13479;49.044;8.716;2022-10-20T07:11:24;99019.91;;;15.06;74.66
25610;BME280;13479;49.044;8.716;2022-10-20T07:13:50;99021.97;;;15.29;73.58
25610;BME280;13479;49.044;8.716;2022-10-20T07:16:19;99010.69;;;15.68;72.47
25610;BME280;13479;49.044;8.716;2022-10-20T07:18:44;99017.41;;;16.22;69.76
25610;BME280;13479;49.044;8.716;2022-10-20T07:21:12;99011.97;;;16.72;67.10
25610;BME280;13479;49.044;8.716;2022-10-20T07:23:38;98995.41;;;17.08;65.57
25610;BME280;13479;49.044;8.716;2022-10-20T07:26:09;98977.78;;;17.13;64.87
25610;BME280;13479;49.044;8.716;2022-10-20T07:28:35;98970.94;;;17.11;64.32
25610;BME280;13479;49.044;8.716;2022-10-20T07:31:05;98963.53;;;17.44;63.72
25610;BME280;13479;49.044;8.716;2022-10-20T07:33:31;98979.03;;;17.57;62.76
25610;BME280;13479;49.044;8.716;2022-10-20T07:35:56;98973.91;;;17.71;62.20
25610;BME280;13479;49.044;8.716;2022-10-20T07:38:21;98972.91;;;18.10;61.09
25610;BME280;13479;49.044;8.716;2022-10-20T07:40:47;98988.81;;;18.65;59.57
25610;BME280;13479;49.044;8.716;2022-10-20T07:43:12;98972.59;;;18.73;59.12
25610;BME280;13479;49.044;8.716;2022-10-20T07:45:37;98964.34;;;18.75;59.13
25610;BME280;13479;49.044;8.716;2022-10-20T07:48:03;98963.28;;;18.91;58.35
25610;BME280;13479;49.044;8.716;2022-10-20T07:50:29;98976.59;;;19.29;57.06
25610;BME280;13479;49.044;8.716;2022-10-20T07:52:54;98974.44;;;19.39;56.47
25610;BME280;13479;49.044;8.716;2022-10-20T07:55:19;98971.81;;;19.46;56.49
25610;BME280;13479;49.044;8.716;2022-10-20T07:57:45;98954.13;;;19.00;57.46
25610;BME280;13479;49.044;8.716;2022-10-20T08:00:11;98944.53;;;19.12;57.13
25610;BME280;13479;49.044;8.716;2022-10-20T08:02:36;98970.50;;;19.20;56.87
25610;BME280;13479;49.044;8.716;2022-10-20T08:05:05;98953.25;;;19.14;57.16
25610;BME280;13479;49.044;8.716;2022-10-20T08:07:30;98940.38;;;19.10;57.38
25610;BME280;13479;49.044;8.716;2022-10-20T08:09:55;98967.22;;;19.25;56.99
25610;BME280;13479;49.044;8.716;2022-10-20T08:12:20;98984.00;;;19.64;56.02
25610;BME280;13479;49.044;8.716;2022-10-20T08:14:46;98972.66;;;19.90;55.71
25610;BME280;13479;49.044;8.716;2022-10-20T08:17:12;98967.84;;;20.42;54.79
25610;BME280;13479;49.044;8.716;2022-10-20T08:19:37;98984.75;;;20.58;52.97
25610;BME280;13479;49.044;8.716;2022-10-20T08:22:02;98993.97;;;21.12;52.48
25610;BME280;13479;49.044;8.716;2022-10-20T08:24:28;98999.69;;;21.57;51.01
25610;BME280;13479;49.044;8.716;2022-10-20T08:26:53;99009.34;;;21.94;50.05
25610;BME280;13479;49.044;8.716;2022-10-20T08:29:18;99014.97;;;22.05;49.63
25610;BME280;13479;49.044;8.716;2022-10-20T08:31:44;99024.53;;;22.35;48.75
25610;BME280;13479;49.044;8.716;2022-10-20T08:34:09;99017.03;;;22.57;48.11
25610;BME280;13479;49.044;8.716;2022-10-20T08:36:34;99020.91;;;22.95;48.03
25610;BME280;13479;49.044;8.716;2022-10-20T08:39:01;99027.16;;;23.02;47.12
25610;BME280;13479;49.044;8.716;2022-10-20T08:41:31;99032.72;;;23.21;47.04
25610;BME280;13479;49.044;8.716;2022-10-20T08:43:58;99050.47;;;23.87;45.96
25610;BME280;13479;49.044;8.716;2022-10-20T08:46:31;99081.84;;;24.41;44.08
25610;BME280;13479;49.044;8.716;2022-10-20T08:48:57;99093.75;;;24.65;43.04
25610;BME280;13479;49.044;8.716;2022-10-20T08:51:26;99077.97;;;25.55;42.57
25610;BME280;13479;49.044;8.716;2022-10-20T08:53:54;99075.63;;;25.58;42.01
25610;BME280;13479;49.044;8.716;2022-10-20T08:56:23;99076.47;;;25.40;42.21
25610;BME280;13479;49.044;8.716;2022-10-20T08:58:49;99070.41;;;24.82;42.49
25610;BME280;13479;49.044;8.716;2022-10-20T09:01:23;99069.47;;;25.14;42.25
25610;BME280;13479;49.044;8.716;2022-10-20T09:03:52;99101.34;;;26.05;40.91
25610;BME280;13479;49.044;8.716;2022-10-20T09:06:18;99113.13;;;26.41;39.93
25610;BME280;13479;49.044;8.716;2022-10-20T09:08:45;99123.91;;;26.36;39.92
25610;BME280;13479;49.044;8.716;2022-10-20T09:11:17;99126.97;;;25.97;40.40
25610;BME280;13479;49.044;8.716;2022-10-20T09:13:45;99139.25;;;26.00;40.72
25610;BME280;13479;49.044;8.716;2022-10-20T09:16:26;99127.69;;;25.74;40.65
25610;BME280;13479;49.044;8.716;2022-10-20T09:18:56;99115.47;;;25.09;41.58
25610;BME280;13479;49.044;8.716;2022-10-20T09:21:21;99064.94;;;24.39;43.36
25610;BME280;13479;49.044;8.716;2022-10-20T09:24:01;99038.47;;;23.77;44.34
25610;BME280;13479;49.044;8.716;2022-10-20T09:29:06;99030.56;;;24.32;43.44
25610;BME280;13479;49.044;8.716;2022-10-20T09:31:34;99045.69;;;24.72;42.81
25610;BME280;13479;49.044;8.716;2022-10-20T09:34:00;99077.47;;;25.46;41.97
25610;BME280;13479;49.044;8.716;2022-10-20T09:36:30;99099.63;;;25.24;42.11
25610;BME280;13479;49.044;8.716;2022-10-20T09:38:58;99089.47;;;24.50;42.86
25610;BME280;13479;49.044;8.716;2022-10-20T09:41:30;99045.50;;;23.84;44.39
25610;BME280;13479;49.044;8.716;2022-10-20T09:44:07;99011.03;;;23.27;45.82
25610;BME280;13479;49.044;8.716;2022-10-20T09:46:51;98991.78;;;22.83;47.50
25610;BME280;13479;49.044;8.716;2022-10-20T09:49:25;98979.00;;;22.45;47.81
25610;BME280;13479;49.044;8.716;2022-10-20T09:51:52;98964.44;;;22.19;48.85
25610;BME280;13479;49.044;8.716;2022-10-20T09:54:19;98967.31;;;22.25;48.90
25610;BME280;13479;49.044;8.716;2022-10-20T09:56:47;98955.06;;;22.29;49.65
25610;BME280;13479;49.044;8.716;2022-10-20T09:59:27;98950.72;;;22.41;49.65
25610;BME280;13479;49.044;8.716;2022-10-20T10:04:36;99029.47;;;23.44;46.44
25610;BME280;13479;49.044;8.716;2022-10-20T10:07:03;99033.19;;;23.50;46.71
25610;BME280;13479;49.044;8.716;2022-10-20T10:09:30;99058.19;;;23.52;46.42
25610;BME280;13479;49.044;8.716;2022-10-20T10:14:24;99017.88;;;22.58;48.56
25610;BME280;13479;49.044;8.716;2022-10-20T10:16:50;98970.44;;;22.35;49.10
25610;BME280;13479;49.044;8.716;2022-10-20T10:19:17;98958.41;;;22.17;50.08
25610;BME280;13479;49.044;8.716;2022-10-20T10:21:53;98959.44;;;22.03;50.51
25610;BME280;13479;49.044;8.716;2022-10-20T10:24:33;98937.63;;;21.71;50.99
25610;BME280;13479;49.044;8.716;2022-10-20T10:27:00;98944.03;;;21.43;51.98
25610;BME280;13479;49.044;8.716;2022-10-20T10:29:32;98938.53;;;21.16;53.09
25610;BME280;13479;49.044;8.716;2022-10-20T10:32:23;98926.88;;;21.02;54.06
25610;BME280;13479;49.044;8.716;2022-10-20T10:34:57;98918.56;;;21.04;53.90
25610;BME280;13479;49.044;8.716;2022-10-20T10:37:26;98916.03;;;20.89;54.23
25610;BME280;13479;49.044;8.716;2022-10-20T10:39:52;98923.09;;;20.90;54.12
25610;BME280;13479;49.044;8.716;2022-10-20T10:50:49;98917.97;;;20.60;55.10
25610;BME280;13479;49.044;8.716;2022-10-20T10:53:29;98904.19;;;20.41;55.79
25610;BME280;13479;49.044;8.716;2022-10-20T10:56:14;98919.44;;;20.27;56.52
25610;BME280;13479;49.044;8.716;2022-10-20T11:07:11;98908.00;;;20.18;56.58
25610;BME280;13479;49.044;8.716;2022-10-20T11:18:49;98929.38;;;20.27;56.87
25610;BME280;13479;49.044;8.716;2022-10-20T11:21:27;98901.19;;;20.23;57.86
25610;BME280;13479;49.044;8.716;2022-10-20T11:26:33;98873.13;;;20.10;58.29
25610;BME280;13479;49.044;8.716;2022-10-20T11:29:00;98890.91;;;20.04;58.44
25610;BME280;13479;49.044;8.716;2022-10-20T11:34:04;98872.84;;;19.98;58.68
25610;BME280;13479;49.044;8.716;2022-10-20T11:36:34;98862.84;;;19.92;59.29
25610;BME280;13479;49.044;8.716;2022-10-20T11:39:03;98888.63;;;19.80;59.69
25610;BME280;13479;49.044;8.716;2022-10-20T11:41:39;98876.81;;;19.81;59.96
25610;BME280;13479;49.044;8.716;2022-10-20T11:44:18;98872.41;;;19.73;60.02
25610;BME280;13479;49.044;8.716;2022-10-20T11:46:52;98867.44;;;19.70;60.58
25610;BME280;13479;49.044;8.716;2022-10-20T11:49:19;98874.34;;;19.79;59.71
25610;BME280;13479;49.044;8.716;2022-10-20T11:54:51;98897.72;;;20.00;59.76
25610;BME280;13479;49.044;8.716;2022-10-20T12:03:12;98912.25;;;20.41;59.64
25610;BME280;13479;49.044;8.716;2022-10-20T12:05:48;98927.97;;;20.66;58.98
25610;BME280;13479;49.044;8.716;2022-10-20T12:11:18;98980.94;;;21.29;56.98
25610;BME280;13479;49.044;8.716;2022-10-20T12:14:15;98990.13;;;21.48;56.20
25610;BME280;13479;49.044;8.716;2022-10-20T12:19:34;98994.72;;;21.54;55.47
25610;BME280;13479;49.044;8.716;2022-10-20T12:22:02;98981.00;;;21.49;55.68
25610;BME280;13479;49.044;8.716;2022-10-20T12:25:21;98991.78;;;21.42;55.51
25610;BME280;13479;49.044;8.716;2022-10-20T12:27:26;98967.78;;;21.06;56.04
25610;BME280;13479;49.044;8.716;2022-10-20T12:32:54;98894.78;;;20.65;57.23
25610;BME280;13479;49.044;8.716;2022-10-20T12:37:56;98877.81;;;20.36;58.44
25610;BME280;13479;49.044;8.716;2022-10-20T12:40:29;98868.84;;;20.23;58.96
25610;BME280;13479;49.044;8.716;2022-10-20T12:42:55;98874.28;;;20.29;59.33
25610;BME280;13479;49.044;8.716;2022-10-20T12:45:34;98873.47;;;20.35;58.88
25610;BME280;13479;49.044;8.716;2022-10-20T12:48:01;98868.25;;;20.27;59.16
25610;BME280;13479;49.044;8.716;2022-10-20T12:50:39;98872.22;;;20.31;59.09
25610;BME280;13479;49.044;8.716;2022-10-20T12:53:11;98865.16;;;20.30;59.62
25610;BME280;13479;49.044;8.716;2022-10-20T12:55:38;98882.22;;;20.44;59.34
25610;BME280;13479;49.044;8.716;2022-10-20T13:05:55;98858.88;;;20.23;59.79
25610;BME280;13479;49.044;8.716;2022-10-20T13:10:50;98825.22;;;20.05;60.96
25610;BME280;13479;49.044;8.716;2022-10-20T13:23:40;98834.13;;;19.78;61.04
25610;BME280;13479;49.044;8.716;2022-10-20T13:28:46;98832.00;;;19.73;61.62
25610;BME280;13479;49.044;8.716;2022-10-20T13:31:46;98838.25;;;19.73;62.23
25610;BME280;13479;49.044;8.716;2022-10-20T13:34:21;98844.47;;;19.74;62.66
25610;BME280;13479;49.044;8.716;2022-10-20T13:36:54;98883.88;;;19.82;61.86
25610;BME280;13479;49.044;8.716;2022-10-20T13:39:37;98866.25;;;19.79;62.08
25610;BME280;13479;49.044;8.716;2022-10-20T13:50:22;98872.59;;;19.93;61.92
25610;BME280;13479;49.044;8.716;2022-10-20T13:52:56;98866.19;;;19.94;62.09
25610;BME280;13479;49.044;8.716;2022-10-20T13:55:28;98839.13;;;19.81;62.62
25610;BME280;13479;49.044;8.716;2022-10-20T13:57:56;98826.84;;;19.71;63.55
25610;BME280;13479;49.044;8.716;2022-10-20T14:00:30;98828.84;;;19.63;63.96
25610;BME280;13479;49.044;8.716;2022-10-20T14:05:22;98838.03;;;19.47;65.07
25610;BME280;13479;49.044;8.716;2022-10-20T14:07:48;98848.09;;;19.38;65.61
25610;BME280;13479;49.044;8.716;2022-10-20T14:10:41;98850.69;;;19.24;65.98
25610;BME280;13479;49.044;8.716;2022-10-20T14:13:09;98855.38;;;19.16;66.11
25610;BME280;13479;49.044;8.716;2022-10-20T14:15:37;98859.72;;;19.17;66.42
25610;BME280;13479;49.044;8.716;2022-10-20T14:18:05;98857.03;;;19.17;66.49
25610;BME280;13479;49.044;8.716;2022-10-20T14:20:33;98864.91;;;19.18;66.21
25610;BME280;13479;49.044;8.716;2022-10-20T14:23:02;98859.72;;;19.17;66.34
25610;BME280;13479;49.044;8.716;2022-10-20T14:25:29;98874.19;;;19.16;65.96
25610;BME280;13479;49.044;8.716;2022-10-20T14:27:57;98863.00;;;19.12;66.31
25610;BME280;13479;49.044;8.716;2022-10-20T14:30:23;98852.59;;;19.09;66.75
25610;BME280;13479;49.044;8.716;2022-10-20T14:32:55;98857.28;;;19.22;67.18
25610;BME280;13479;49.044;8.716;2022-10-20T14:37:58;98879.81;;;19.42;66.53
25610;BME280;13479;49.044;8.716;2022-10-20T14:40:30;98869.00;;;19.57;66.38
25610;BME280;13479;49.044;8.716;2022-10-20T14:42:58;98878.97;;;19.64;66.38
25610;BME280;13479;49.044;8.716;2022-10-20T14:45:27;98869.66;;;19.66;66.61
25610;BME280;13479;49.044;8.716;2022-10-20T14:47:54;98885.94;;;19.80;65.58
25610;BME280;13479;49.044;8.716;2022-10-20T14:52:48;98871.78;;;19.71;65.94
25610;BME280;13479;49.044;8.716;2022-10-20T14:55:31;98879.22;;;19.69;65.82
25610;BME280;13479;49.044;8.716;2022-10-20T14:57:58;98866.00;;;19.74;65.53
25610;BME280;13479;49.044;8.716;2022-10-20T15:00:25;98877.69;;;19.81;65.07
25610;BME280;13479;49.044;8.716;2022-10-20T15:02:50;98895.47;;;19.82;64.67
25610;BME280;13479;49.044;8.716;2022-10-20T15:07:47;98889.75;;;19.64;65.38
25610;BME280;13479;49.044;8.716;2022-10-20T15:10:14;98854.31;;;19.60;65.64
25610;BME280;13479;49.044;8.716;2022-10-20T15:12:42;98875.94;;;19.73;64.90
25610;BME280;13479;49.044;8.716;2022-10-20T15:17:36;98878.91;;;19.57;65.17
25610;BME280;13479;49.044;8.716;2022-10-20T15:23:06;98851.19;;;19.35;65.55
25610;BME280;13479;49.044;8.716;2022-10-20T15:25:39;98877.41;;;19.26;65.50
25610;BME280;13479;49.044;8.716;2022-10-20T15:28:18;98855.50;;;19.07;66.10
25610;BME280;13479;49.044;8.716;2022-10-20T15:30:44;98820.63;;;18.99;66.42
25610;BME280;13479;49.044;8.716;2022-10-20T15:33:10;98803.06;;;18.81;67.18
25610;BME280;13479;49.044;8.716;2022-10-20T15:35:35;98806.50;;;18.75;67.49
25610;BME280;13479;49.044;8.716;2022-10-20T15:38:00;98807.47;;;18.67;68.04
25610;BME280;13479;49.044;8.716;2022-10-20T15:40:25;98816.66;;;18.58;68.61
25610;BME280;13479;49.044;8.716;2022-10-20T15:42:51;98836.16;;;18.45;69.24
25610;BME280;13479;49.044;8.716;2022-10-20T15:45:19;98856.84;;;18.45;69.56
25610;BME280;13479;49.044;8.716;2022-10-20T15:47:45;98863.88;;;18.31;70.56
25610;BME280;13479;49.044;8.716;2022-10-20T15:50:11;98878.63;;;18.35;70.81
25610;BME280;13479;49.044;8.716;2022-10-20T15:52:37;98890.38;;;18.34;71.93
25610;BME280;13479;49.044;8.716;2022-10-20T15:57:50;98885.19;;;18.02;75.65
25610;BME280;13479;49.044;8.716;2022-10-20T16:00:17;98889.47;;;17.73;78.80
25610;BME280;13479;49.044;8.716;2022-10-20T16:02:42;98907.25;;;17.51;80.79
25610;BME280;13479;49.044;8.716;2022-10-20T16:05:08;98890.88;;;17.23;83.98
25610;BME280;13479;49.044;8.716;2022-10-20T16:07:33;98885.81;;;17.05;85.09
25610;BME280;13479;49.044;8.716;2022-10-20T16:09:59;98888.56;;;16.88;86.82
25610;BME280;13479;49.044;8.716;2022-10-20T16:12:24;98913.47;;;16.65;87.92
25610;BME280;13479;49.044;8.716;2022-10-20T16:14:50;98912.50;;;16.50;89.88
25610;BME280;13479;49.044;8.716;2022-10-20T16:17:15;98930.25;;;16.59;89.37
25610;BME280;13479;49.044;8.716;2022-10-20T16:19:41;98926.97;;;16.41;89.66
25610;BME280;13479;49.044;8.716;2022-10-20T16:22:06;98927.00;;;16.32;91.19
25610;BME280;13479;49.044;8.716;2022-10-20T16:24:31;98939.53;;;16.40;91.10
25610;BME280;13479;49.044;8.716;2022-10-20T16:26:57;98942.09;;;16.25;91.90
25610;BME280;13479;49.044;8.716;2022-10-20T16:29:22;98956.13;;;16.27;92.59
25610;BME280;13479;49.044;8.716;2022-10-20T16:31:47;98967.53;;;16.21;93.50
25610;BME280;13479;49.044;8.716;2022-10-20T16:34:12;98963.84;;;16.22;93.85
25610;BME280;13479;49.044;8.716;2022-10-20T16:36:38;98956.47;;;16.32;93.84
25610;BME280;13479;49.044;8.716;2022-10-20T16:39:03;98954.25;;;16.36;93.36
25610;BME280;13479;49.044;8.716;2022-10-20T16:41:28;98964.81;;;16.46;92.73
25610;BME280;13479;49.044;8.716;2022-10-20T16:43:54;98943.72;;;16.34;93.33
25610;BME280;13479;49.044;8.716;2022-10-20T16:46:19;98925.00;;;16.18;94.45
25610;BME280;13479;49.044;8.716;2022-10-20T16:48:45;98952.13;;;16.23;95.08
25610;BME280;13479;49.044;8.716;2022-10-20T16:51:10;98977.22;;;16.30;94.25
25610;BME280;13479;49.044;8.716;2022-10-20T16:53:36;98994.63;;;16.34;92.84
25610;BME280;13479;49.044;8.716;2022-10-20T16:56:02;98962.16;;;16.21;92.77
25610;BME280;13479;49.044;8.716;2022-10-20T16:58:27;98939.94;;;16.20;93.60
25610;BME280;13479;49.044;8.716;2022-10-20T17:01:10;98928.19;;;16.13;93.70
25610;BME280;13479;49.044;8.716;2022-10-20T17:03:40;98932.91;;;16.03;94.47
25610;BME280;13479;49.044;8.716;2022-10-20T17:06:06;98937.44;;;15.94;95.83
25610;BME280;13479;49.044;8.716;2022-10-20T17:08:33;98945.13;;;15.97;95.99
25610;BME280;13479;49.044;8.716;2022-10-20T17:11:01;98943.28;;;15.89;96.92
25610;BME280;13479;49.044;8.716;2022-10-20T17:13:29;98966.75;;;15.87;97.46
25610;BME280;13479;49.044;8.716;2022-10-20T17:15:55;98962.53;;;15.85;98.21
25610;BME280;13479;49.044;8.716;2022-10-20T17:18:22;98959.34;;;15.89;99.15
25610;BME280;13479;49.044;8.716;2022-10-20T17:20:52;98970.22;;;15.96;98.89
25610;BME280;13479;49.044;8.716;2022-10-20T17:23:18;98987.97;;;15.97;98.86
25610;BME280;13479;49.044;8.716;2022-10-20T17:25:43;99004.03;;;16.05;97.23
25610;BME280;13479;49.044;8.716;2022-10-20T17:28:08;98993.16;;;16.07;96.94
25610;BME280;13479;49.044;8.716;2022-10-20T17:30:39;98995.00;;;15.98;97.00
25610;BME280;13479;49.044;8.716;2022-10-20T17:33:04;98988.81;;;15.89;97.76
25610;BME280;13479;49.044;8.716;2022-10-20T17:35:29;98974.56;;;16.05;97.33
25610;BME280;13479;49.044;8.716;2022-10-20T17:37:55;98997.34;;;16.10;96.83
25610;BME280;13479;49.044;8.716;2022-10-20T17:40:20;98995.34;;;16.03;97.21
25610;BME280;13479;49.044;8.716;2022-10-20T17:42:46;98989.66;;;15.98;97.45
25610;BME280;13479;49.044;8.716;2022-10-20T17:45:11;98994.66;;;16.01;98.45
25610;BME280;13479;49.044;8.716;2022-10-20T17:47:36;98980.94;;;15.96;98.98
25610;BME280;13479;49.044;8.716;2022-10-20T17:50:01;98988.66;;;15.91;98.98
25610;BME280;13479;49.044;8.716;2022-10-20T17:52:28;98996.19;;;15.96;99.72
25610;BME280;13479;49.044;8.716;2022-10-20T17:54:53;99003.88;;;16.07;98.22
25610;BME280;13479;49.044;8.716;2022-10-20T17:57:19;98997.16;;;16.03;98.10
25610;BME280;13479;49.044;8.716;2022-10-20T17:59:44;98991.47;;;15.89;98.48
25610;BME280;13479;49.044;8.716;2022-10-20T18:02:10;98985.47;;;15.96;98.55
25610;BME280;13479;49.044;8.716;2022-10-20T18:04:35;98984.63;;;15.95;98.69
25610;BME280;13479;49.044;8.716;2022-10-20T18:07:01;98985.13;;;15.99;98.38
25610;BME280;13479;49.044;8.716;2022-10-20T18:09:26;98993.66;;;15.94;98.59
25610;BME280;13479;49.044;8.716;2022-10-20T18:11:51;98969.25;;;15.89;98.58
25610;BME280;13479;49.044;8.716;2022-10-20T18:14:17;98965.38;;;15.83;99.29
25610;BME280;13479;49.044;8.716;2022-10-20T18:16:43;98978.56;;;15.60;100.00
25610;BME280;13479;49.044;8.716;2022-10-20T18:19:12;98979.22;;;15.62;100.00
25610;BME280;13479;49.044;8.716;2022-10-20T18:21:38;98999.00;;;15.78;100.00
25610;BME280;13479;49.044;8.716;2022-10-20T18:24:06;99003.16;;;15.72;99.87
25610;BME280;13479;49.044;8.716;2022-10-20T18:26:34;98961.84;;;15.66;100.00
25610;BME280;13479;49.044;8.716;2022-10-20T18:29:00;98957.81;;;15.62;100.00
25610;BME280;13479;49.044;8.716;2022-10-20T18:31:28;98973.06;;;15.53;100.00
25610;BME280;13479;49.044;8.716;2022-10-20T18:34:00;98979.41;;;15.52;100.00
25610;BME280;13479;49.044;8.716;2022-10-20T18:36:26;98980.53;;;15.33;100.00
25610;BME280;13479;49.044;8.716;2022-10-20T18:38:52;98977.88;;;15.41;100.00
25610;BME280;13479;49.044;8.716;2022-10-20T18:41:21;98973.69;;;15.39;100.00
25610;BME280;13479;49.044;8.716;2022-10-20T18:43:51;98982.22;;;15.51;100.00
25610;BME280;13479;49.044;8.716;2022-10-20T18:46:16;98997.97;;;15.46;100.00
25610;BME280;13479;49.044;8.716;2022-10-20T18:48:42;98989.94;;;15.46;100.00
25610;BME280;13479;49.044;8.716;2022-10-20T18:51:08;98986.88;;;15.32;100.00
25610;BME280;13479;49.044;8.716;2022-10-20T18:53:35;98989.56;;;15.32;100.00